Who's Online

We have 5 guests online

GK Weather

An error occured during parsing XML data. Please try again.

Aviation WX

[source: ADDS]
METAR
KIAD 310252Z 00000KT 10SM FEW085 SCT250 24/21 A2992 RMK AO2 SLP128 T02390211 53013 =
TAF
KIAD 302328Z 3100/0106 19006KT P6SM SCT040 BKN150 FM310200 25006KT P6SM FEW040 FEW250 FM310400 31005KT P6SM FEW250 =
SR / SS: 23:53 / 14:03 UTC (Washington-Dulles 2015-07-30)

JoomlaWatch Agent

Home Links
We are regularly out on the Web. When we find a great site we list it.